Time;durP1;ratioP1;P1;durP2;ratioP2;P2;SDS_P1;SDS_P2;PMS_P1;PMS_P2;Temp;Humidity;BMP_temperature;BMP_pressure;BME280_temperature;BME280_humidity;BME280_pressure;Samples;Min_cycle;Max_cycle;Signal;HPM_P1;HPM_P2
2022/09/16 00:00:15;;;;;;;8.85;3.38;;;;;;;12.09;97.25;100386.91;4981963;28;20062;-81
2022/09/16 00:02:44;;;;;;;4.43;2.67;;;;;;;12.09;97.46;100371.97;4977657;28;20125;-80
2022/09/16 00:05:17;;;;;;;6.13;2.72;;;;;;;12.09;97.57;100387.72;4980770;28;20074;-78
2022/09/16 00:07:45;;;;;;;7.28;3.13;;;;;;;12.13;97.17;100377.69;4981534;28;20113;-80
2022/09/16 00:10:12;;;;;;;8.98;2.80;;;;;;;12.11;97.27;100374.44;4980624;28;20058;-80
2022/09/16 00:12:41;;;;;;;10.65;3.78;;;;;;;12.07;97.58;100368.72;4999701;28;20138;-80
2022/09/16 00:15:09;;;;;;;7.90;2.88;;;;;;;12.12;97.84;100392.63;4999140;28;20052;-80
2022/09/16 00:17:36;;;;;;;9.50;2.70;;;;;;;12.02;98.15;100375.47;4998244;28;20133;-80
2022/09/16 00:20:04;;;;;;;7.90;2.88;;;;;;;12.03;98.63;100384.97;4985404;28;20106;-81
2022/09/16 00:22:30;;;;;;;6.05;2.85;;;;;;;12.00;99.14;100388.75;4993386;28;20090;-81
2022/09/16 00:24:57;;;;;;;8.07;2.95;;;;;;;11.97;99.59;100381.22;5000334;28;20082;-80
2022/09/16 00:27:24;;;;;;;12.13;2.92;;;;;;;11.95;99.18;100391.06;5000409;28;20046;-80
2022/09/16 00:29:52;;;;;;;8.00;3.00;;;;;;;12.04;99.42;100387.41;4982455;28;20137;-80
2022/09/16 00:32:24;;;;;;;8.48;3.00;;;;;;;12.09;99.39;100386.91;4981176;28;20085;-81
2022/09/16 00:34:51;;;;;;;7.30;3.58;;;;;;;12.06;99.73;100377.56;4981766;28;20054;-79
2022/09/16 00:37:17;;;;;;;6.70;3.50;;;;;;;12.12;99.28;100387.38;4980931;28;20189;-79
2022/09/16 00:39:44;;;;;;;6.05;3.10;;;;;;;12.06;98.95;100385.44;4979060;28;20110;-81
2022/09/16 00:42:11;;;;;;;6.38;3.13;;;;;;;12.03;99.36;100388.41;4979414;28;20093;-81
2022/09/16 00:44:58;;;;;;;8.65;3.08;;;;;;;12.00;99.23;100373.00;4980140;28;20519;-81
2022/09/16 00:47:30;;;;;;;9.25;3.13;;;;;;;11.95;99.37;100385.81;4980510;28;20089;-80
2022/09/16 00:50:02;;;;;;;13.10;4.05;;;;;;;11.98;99.47;100389.91;4983041;28;20070;-81
2022/09/16 00:52:30;;;;;;;8.63;3.40;;;;;;;11.91;99.93;100381.88;4998382;28;20050;-81
2022/09/16 00:54:57;;;;;;;6.45;3.30;;;;;;;11.82;100.00;100386.34;4998191;28;20122;-81
2022/09/16 00:57:24;;;;;;;9.07;3.35;;;;;;;11.79;100.00;100383.28;4979467;28;20218;-81
2022/09/16 00:59:54;;;;;;;8.02;3.75;;;;;;;11.74;100.00;100385.56;4991580;28;20089;-83
2022/09/16 01:02:24;;;;;;;6.82;3.30;;;;;;;11.77;100.00;100380.81;4998486;28;20054;-81
2022/09/16 01:04:56;;;;;;;12.30;3.25;;;;;;;11.70;100.00;100384.25;4998911;28;20054;-81
2022/09/16 01:07:31;;;;;;;10.67;3.10;;;;;;;11.64;100.00;100383.94;4979503;28;20082;-81
2022/09/16 01:09:58;;;;;;;7.22;3.80;;;;;;;11.68;100.00;100388.84;4977935;28;20489;-79
2022/09/16 01:12:28;;;;;;;6.53;3.13;;;;;;;11.63;100.00;100384.09;4979155;28;20050;-81
2022/09/16 01:14:57;;;;;;;8.70;3.42;;;;;;;11.62;100.00;100383.28;4989478;28;20126;-80
2022/09/16 01:17:37;;;;;;;11.98;3.53;;;;;;;11.63;100.00;100384.94;4996230;28;20050;-82
2022/09/16 01:20:37;;;;;;;8.35;3.55;;;;;;;11.66;100.00;100389.00;4997174;28;20078;-81
2022/09/16 01:23:36;;;;;;;7.22;3.30;;;;;;;11.74;100.00;100388.16;4969533;28;20141;-82
2022/09/16 01:26:22;;;;;;;6.18;3.47;;;;;;;11.68;100.00;100383.59;4977911;28;20055;-82
2022/09/16 01:29:08;;;;;;;11.73;3.67;;;;;;;11.78;100.00;100389.50;4977803;28;20105;-81
2022/09/16 01:31:43;;;;;;;11.75;3.95;;;;;;;11.82;100.00;100388.97;4988744;28;20517;-83
2022/09/16 01:34:19;;;;;;;9.43;4.05;;;;;;;11.96;100.00;100388.25;4997799;28;20121;-79
2022/09/16 01:36:51;;;;;;;13.90;4.13;;;;;;;11.99;100.00;100386.28;4997938;28;20144;-82
2022/09/16 01:39:43;;;;;;;13.40;5.05;;;;;;;12.03;100.00;100393.66;4994245;28;20094;-82
2022/09/16 01:42:30;;;;;;;8.55;3.95;;;;;;;11.96;100.00;100374.34;4978190;28;20051;-82
2022/09/16 01:45:19;;;;;;;10.35;5.18;;;;;;;12.12;100.00;100371.63;4986088;28;20586;-83
2022/09/16 01:48:06;;;;;;;8.35;4.13;;;;;;;12.02;100.00;100362.34;4978763;28;20074;-80
2022/09/16 01:50:49;;;;;;;14.82;5.22;;;;;;;11.99;100.00;100345.16;4979145;28;20066;-84
2022/09/16 01:53:43;;;;;;;14.13;4.65;;;;;;;12.10;100.00;100357.88;4978561;28;20066;-82
2022/09/16 01:56:23;;;;;;;12.50;4.72;;;;;;;12.14;100.00;100369.66;4984089;28;20556;-83
2022/09/16 01:59:26;;;;;;;;;;;;;;;;;;;;;
2022/09/16 02:02:07;;;;;;;11.88;4.60;;;;;;;12.18;100.00;100363.09;4973927;28;20207;-82
2022/09/16 02:05:31;;;;;;;10.18;4.57;;;;;;;12.04;100.00;100342.84;4977864;28;20073;-82
2022/09/16 02:08:22;;;;;;;15.65;5.45;;;;;;;12.22;100.00;100342.56;4977910;28;20055;-83
2022/09/16 02:10:54;;;;;;;12.95;4.50;;;;;;;12.23;100.00;100357.31;4978100;28;20059;-80
2022/09/16 02:13:57;;;;;;;12.70;4.68;;;;;;;12.28;100.00;100357.63;4980068;28;20110;-82
2022/09/16 02:16:44;;;;;;;18.58;5.00;;;;;;;12.22;100.00;100372.25;4982940;28;20062;-78
2022/09/16 02:19:40;;;;;;;17.38;4.97;;;;;;;12.08;100.00;100344.13;4977197;28;20182;-79
2022/09/16 02:22:14;;;;;;;9.68;4.43;;;;;;;12.14;100.00;100359.16;4971579;28;20046;-80
2022/09/16 02:24:50;;;;;;;11.55;4.85;;;;;;;12.23;100.00;100357.31;4988112;28;20733;-79
2022/09/16 02:27:20;;;;;;;18.00;5.32;;;;;;;12.34;100.00;100353.47;4998575;28;20050;-80
2022/09/16 02:29:56;;;;;;;10.88;5.10;;;;;;;12.39;100.00;100364.25;4997573;28;20058;-80
2022/09/16 02:32:27;;;;;;;9.35;5.25;;;;;;;12.35;100.00;100362.97;4979422;28;20070;-81
2022/09/16 02:34:56;;;;;;;14.23;5.63;;;;;;;12.36;100.00;100369.84;4980181;28;20160;-80
2022/09/16 02:37:30;;;;;;;13.63;5.68;;;;;;;12.34;100.00;100356.09;4979326;28;20049;-80
2022/09/16 02:40:04;;;;;;;9.40;4.30;;;;;;;12.27;100.00;100362.06;4979004;28;20054;-79
2022/09/16 02:42:31;;;;;;;9.65;4.05;;;;;;;12.28;100.00;100366.31;4999742;28;20050;-78
2022/09/16 02:45:02;;;;;;;7.80;3.33;;;;;;;12.26;100.00;100362.22;5000160;28;20480;-80
2022/09/16 02:47:33;;;;;;;8.93;3.53;;;;;;;12.22;100.00;100372.25;4999454;28;20077;-79
2022/09/16 02:50:04;;;;;;;10.45;3.88;;;;;;;12.23;100.00;100368.63;4998978;28;20054;-79
2022/09/16 02:52:38;;;;;;;14.05;3.42;;;;;;;12.13;100.00;100362.78;4998384;28;20085;-77
2022/09/16 02:55:14;;;;;;;8.95;3.60;;;;;;;12.11;100.00;100351.66;5001072;28;20193;-79
2022/09/16 02:57:41;;;;;;;8.80;3.17;;;;;;;12.12;100.00;100345.41;4993569;28;20058;-79
2022/09/16 03:00:09;;;;;;;10.30;3.58;;;;;;;12.12;100.00;100355.09;4977250;28;20513;-79
2022/09/16 03:02:36;;;;;;;7.80;3.80;;;;;;;12.09;100.00;100351.00;5001653;28;20057;-81
2022/09/16 03:05:03;;;;;;;9.88;3.78;;;;;;;12.02;100.00;100342.19;5004508;28;20058;-79
2022/09/16 03:07:30;;;;;;;7.63;4.25;;;;;;;11.98;100.00;100340.88;4998350;28;20054;-81
2022/09/16 03:09:57;;;;;;;11.13;4.80;;;;;;;12.03;100.00;100345.63;4980045;28;20127;-80
2022/09/16 03:12:44;;;;;;;13.50;4.88;;;;;;;12.03;100.00;100343.81;4979164;28;20089;-83
2022/09/16 03:15:37;;;;;;;10.73;5.10;;;;;;;11.99;100.00;100344.31;4981844;28;20047;-81
2022/09/16 03:29:38;;;;;;;;;;;;;;;;;;;;;
2022/09/16 03:36:16;;;;;;;11.18;4.60;;;;;;;11.69;100.00;100338.88;4766379;30;20039;-82
2022/09/16 03:45:41;;;;;;;10.60;4.63;;;;;;;11.64;100.00;100328.91;4898551;29;20063;-79
2022/09/16 03:48:34;;;;;;;9.70;4.40;;;;;;;11.69;100.00;100327.56;4921915;29;20593;-81
2022/09/16 03:51:18;;;;;;;7.20;4.65;;;;;;;11.88;100.00;100333.22;4971298;28;20057;-82
2022/09/16 03:53:47;;;;;;;9.25;4.90;;;;;;;11.85;100.00;100333.56;5001823;28;20404;-80
2022/09/16 03:56:23;;;;;;;16.33;4.68;;;;;;;11.79;100.00;100317.75;4998020;28;20050;-80
2022/09/16 03:58:57;;;;;;;9.45;4.60;;;;;;;11.79;100.00;100313.31;4982768;28;20062;-81
2022/09/16 04:01:31;;;;;;;10.00;4.50;;;;;;;11.90;100.00;100325.19;4993580;28;20074;-79
2022/09/16 04:04:06;;;;;;;14.15;4.78;;;;;;;11.86;100.00;100318.66;5002376;28;20149;-81
2022/09/16 04:06:36;;;;;;;12.68;5.00;;;;;;;11.70;100.00;100293.34;4991667;28;20066;-83
2022/09/16 04:09:26;;;;;;;11.30;4.93;;;;;;;11.78;100.00;100310.88;4980899;28;20524;-82
2022/09/16 04:12:16;;;;;;;10.55;4.40;;;;;;;11.72;100.00;100311.50;4981227;28;20063;-82
2022/09/16 04:14:52;;;;;;;9.25;4.82;;;;;;;11.72;100.00;100314.94;4983772;28;20243;-79
2022/09/16 04:20:13;;;;;;;10.68;5.10;;;;;;;11.69;100.00;100307.44;5003512;28;20054;-83
2022/09/16 04:22:46;;;;;;;10.68;4.93;;;;;;;11.61;100.00;100315.31;5005677;28;20054;-82
2022/09/16 04:25:12;;;;;;;12.95;5.00;;;;;;;11.46;100.00;100290.81;5005820;28;20051;-81
2022/09/16 04:27:41;;;;;;;14.88;5.28;;;;;;;11.56;100.00;100307.97;5005915;28;20393;-81
2022/09/16 04:30:09;;;;;;;16.13;5.93;;;;;;;11.57;100.00;100309.59;5003932;28;20061;-81
2022/09/16 04:32:36;;;;;;;13.07;5.20;;;;;;;11.57;100.00;100320.09;5003730;28;20107;-81
2022/09/16 04:35:03;;;;;;;12.98;6.40;;;;;;;11.52;100.00;100301.44;5010614;28;20128;-81
2022/09/16 04:37:32;;;;;;;11.65;5.43;;;;;;;11.53;100.00;100308.31;5006674;28;20054;-81
2022/09/16 04:40:01;;;;;;;14.68;5.10;;;;;;;11.44;100.00;100314.56;5008536;28;20054;-82
2022/09/16 04:45:58;;;;;;;;;;;;;;;;;;;;;
2022/09/16 04:48:34;;;;;;;9.15;4.68;;;;;;;11.57;100.00;100304.34;4979820;28;20287;-83
2022/09/16 04:51:13;;;;;;;8.15;4.32;;;;;;;11.69;100.00;100323.16;4989859;28;20051;-82
2022/09/16 04:53:42;;;;;;;9.35;4.28;;;;;;;11.61;100.00;100300.41;5008625;28;20077;-82
2022/09/16 04:56:45;;;;;;;10.77;4.20;;;;;;;11.63;100.00;100295.81;5010451;28;20073;-84
2022/09/16 04:59:12;;;;;;;11.68;4.30;;;;;;;11.62;100.00;100322.19;5010510;28;20085;-81
2022/09/16 05:01:42;;;;;;;12.85;5.50;;;;;;;11.70;100.00;100324.78;5011754;28;20121;-81
2022/09/16 05:04:12;;;;;;;12.48;4.60;;;;;;;11.68;100.00;100318.09;5010928;28;20054;-81
2022/09/16 05:14:12;;;;;;;13.45;4.20;;;;;;;11.73;100.00;100313.97;4940372;28;20053;-83
2022/09/16 05:23:27;;;;;;;11.43;4.55;;;;;;;11.67;100.00;100285.81;4916173;29;20048;-84
2022/09/16 05:26:18;;;;;;;14.38;3.83;;;;;;;11.74;100.00;100299.06;4911977;29;20075;-82
2022/09/16 05:28:45;;;;;;;8.93;3.95;;;;;;;11.85;100.00;100314.41;4953038;28;20047;-82
2022/09/16 05:31:13;;;;;;;11.20;4.75;;;;;;;11.86;100.00;100313.41;4967584;29;20071;-81
2022/09/16 05:34:14;;;;;;;12.70;5.07;;;;;;;11.94;99.12;100326.50;4968186;29;20054;-81
2022/09/16 05:36:42;;;;;;;10.00;3.83;;;;;;;11.93;99.38;100330.09;4962230;28;20043;-82
2022/09/16 05:39:11;;;;;;;11.38;3.78;;;;;;;11.95;98.54;100331.56;4964692;29;20095;-80
2022/09/16 05:41:57;;;;;;;12.55;3.67;;;;;;;11.96;98.40;100329.75;4993723;28;20457;-80
2022/09/16 05:44:25;;;;;;;10.80;3.95;;;;;;;11.97;98.22;100320.91;5006599;28;20047;-79
2022/09/16 05:46:51;;;;;;;8.52;3.60;;;;;;;11.97;98.23;100326.16;5005810;28;20111;-80
2022/09/16 05:49:20;;;;;;;13.02;4.07;;;;;;;12.00;98.44;100335.47;5001454;28;20452;-80
2022/09/16 05:51:48;;;;;;;10.00;3.85;;;;;;;12.01;98.39;100335.31;5000461;28;20567;-79
2022/09/16 05:54:17;;;;;;;9.77;3.78;;;;;;;12.06;98.14;100330.34;5000096;28;20074;-79
2022/09/16 05:56:47;;;;;;;9.07;3.28;;;;;;;12.08;97.96;100333.63;4999978;28;20058;-81
2022/09/16 05:59:22;;;;;;;5.63;3.50;;;;;;;12.19;97.57;100338.50;5000855;28;20145;-80
2022/09/16 06:01:49;;;;;;;9.90;4.00;;;;;;;12.23;96.89;100329.28;5000652;28;20061;-81
2022/09/16 06:04:16;;;;;;;12.30;4.22;;;;;;;12.18;96.54;100328.97;5000961;28;20084;-79
2022/09/16 06:06:46;;;;;;;16.58;3.85;;;;;;;12.25;96.75;100326.47;4999660;28;20433;-80
2022/09/16 06:09:15;;;;;;;8.63;3.72;;;;;;;12.24;96.85;100332.72;4999261;28;20054;-80
2022/09/16 06:11:43;;;;;;;8.02;3.80;;;;;;;12.41;96.76;100322.91;5001184;28;20051;-79
2022/09/16 06:14:11;;;;;;;13.25;3.60;;;;;;;12.39;95.73;100327.53;5001525;28;20085;-80
2022/09/16 06:16:38;;;;;;;13.32;3.78;;;;;;;12.52;95.15;100333.00;5000367;28;20054;-80
2022/09/16 06:19:09;;;;;;;12.10;3.92;;;;;;;13.10;94.03;100334.13;5000215;28;20050;-81
2022/09/16 06:21:36;;;;;;;9.25;3.40;;;;;;;13.54;90.40;100342.88;5001607;28;20136;-81
2022/09/16 06:24:07;;;;;;;8.68;3.53;;;;;;;13.26;90.81;100347.13;5001199;28;20433;-82
2022/09/16 06:26:35;;;;;;;11.02;4.38;;;;;;;13.03;92.16;100351.59;5001189;28;20065;-81
2022/09/16 06:29:01;;;;;;;12.05;3.63;;;;;;;12.83;92.89;100349.47;5003916;28;20075;-81
2022/09/16 06:31:29;;;;;;;10.48;3.80;;;;;;;12.68;93.26;100348.63;5001742;28;20096;-81
2022/09/16 06:33:57;;;;;;;12.32;4.13;;;;;;;12.67;93.21;100344.38;4999956;28;20100;-79
2022/09/16 06:36:26;;;;;;;9.02;3.70;;;;;;;12.68;93.11;100343.38;4997830;28;20086;-79
2022/09/16 06:38:53;;;;;;;7.97;3.78;;;;;;;12.58;92.83;100343.63;4997642;28;20133;-79
2022/09/16 06:41:22;;;;;;;10.05;4.38;;;;;;;12.61;93.13;100343.28;4998677;28;20062;-80
2022/09/16 06:43:51;;;;;;;10.77;3.28;;;;;;;12.66;93.22;100326.19;5000136;28;20520;-80
2022/09/16 06:46:20;;;;;;;13.93;3.90;;;;;;;12.73;92.93;100333.19;5000038;28;20050;-79
2022/09/16 06:48:49;;;;;;;8.43;3.42;;;;;;;12.72;92.86;100338.59;5000549;28;20113;-79
2022/09/16 06:51:17;;;;;;;9.57;3.50;;;;;;;12.69;92.96;100320.56;5008520;28;20031;-80
2022/09/16 06:53:45;;;;;;;7.22;3.25;;;;;;;12.71;93.03;100329.91;4998951;28;20129;-79
2022/09/16 06:56:14;;;;;;;6.30;3.35;;;;;;;12.72;92.96;100335.97;5003913;28;20493;-80
2022/09/16 06:58:43;;;;;;;9.88;3.53;;;;;;;12.67;93.25;100326.00;5003191;28;20089;-80
2022/09/16 07:01:13;;;;;;;5.57;3.20;;;;;;;12.78;93.29;100337.88;5003313;28;20054;-79
2022/09/16 07:03:41;;;;;;;10.98;3.70;;;;;;;12.71;93.12;100334.34;4994423;28;20125;-78
2022/09/16 07:06:10;;;;;;;8.60;3.38;;;;;;;12.86;93.03;100338.63;4990819;28;20545;-78
2022/09/16 07:08:38;;;;;;;7.60;3.63;;;;;;;13.07;92.36;100339.75;4992253;28;20057;-78
2022/09/16 07:11:06;;;;;;;8.43;3.42;;;;;;;13.10;91.82;100342.03;4987214;28;20436;-78
2022/09/16 07:13:36;;;;;;;8.45;3.20;;;;;;;13.11;91.98;100343.66;4993772;28;20129;-79
2022/09/16 07:16:06;;;;;;;9.57;3.40;;;;;;;13.08;91.94;100336.94;4990831;28;20038;-79
2022/09/16 07:18:34;;;;;;;9.10;3.08;;;;;;;13.11;92.38;100335.78;4991162;28;20050;-79
2022/09/16 07:21:02;;;;;;;5.60;2.92;;;;;;;13.12;92.82;100340.03;4985189;28;20074;-79
2022/09/16 07:23:31;;;;;;;7.72;2.95;;;;;;;13.05;92.08;100342.56;4993018;28;20042;-79
2022/09/16 07:26:03;;;;;;;7.57;3.38;;;;;;;13.05;92.80;100342.56;5002605;28;20050;-79
2022/09/16 07:28:30;;;;;;;7.13;3.10;;;;;;;13.28;92.77;100342.50;4992425;28;20047;-79
2022/09/16 07:30:56;;;;;;;6.68;2.90;;;;;;;13.44;91.63;100346.78;4997696;28;20050;-79
2022/09/16 07:33:24;;;;;;;7.60;2.83;;;;;;;13.27;91.61;100346.94;4989806;28;20217;-79
2022/09/16 07:35:51;;;;;;;7.28;2.92;;;;;;;13.46;92.02;100345.59;4996575;28;20057;-79
2022/09/16 07:38:18;;;;;;;6.78;2.97;;;;;;;13.58;91.49;100349.41;4995129;28;20050;-79
2022/09/16 07:40:45;;;;;;;7.00;2.85;;;;;;;13.67;91.39;100344.06;4996774;28;20058;-80
2022/09/16 07:43:11;;;;;;;6.97;2.90;;;;;;;13.55;90.34;100355.03;5005165;28;20192;-78
2022/09/16 07:45:38;;;;;;;8.80;2.92;;;;;;;13.63;90.49;100358.56;5003823;28;20062;-79
2022/09/16 07:48:05;;;;;;;7.50;2.78;;;;;;;13.75;90.41;100364.97;5003223;28;20481;-79
2022/09/16 07:50:33;;;;;;;6.25;3.00;;;;;;;13.82;89.63;100360.63;5005295;28;20054;-79
2022/09/16 07:52:59;;;;;;;8.32;3.58;;;;;;;13.84;88.89;100363.88;5004575;28;20078;-79
2022/09/16 07:55:26;;;;;;;7.63;2.40;;;;;;;13.85;88.92;100365.50;5003880;28;20082;-79
2022/09/16 07:57:53;;;;;;;7.93;2.95;;;;;;;14.03;88.72;100367.75;5002923;28;20052;-80
2022/09/16 08:00:20;;;;;;;4.97;2.35;;;;;;;14.27;88.37;100365.59;5000935;28;20608;-79
2022/09/16 08:02:47;;;;;;;6.50;2.88;;;;;;;14.07;87.34;100369.03;4999563;28;20048;-80
2022/09/16 08:05:15;;;;;;;8.43;3.22;;;;;;;14.33;86.77;100371.94;4998742;28;20101;-77
2022/09/16 08:07:43;;;;;;;8.68;2.90;;;;;;;14.28;85.98;100367.22;4996736;28;20053;-80
2022/09/16 08:10:09;;;;;;;5.32;2.80;;;;;;;14.46;84.67;100376.56;5000439;28;20486;-77
2022/09/16 08:12:36;;;;;;;6.18;3.05;;;;;;;14.43;84.78;100374.28;4996451;28;20069;-80
2022/09/16 08:15:03;;;;;;;5.60;2.70;;;;;;;14.67;84.62;100368.63;4996741;28;20092;-78
2022/09/16 08:17:30;;;;;;;7.88;2.35;;;;;;;14.83;83.80;100373.66;4996674;28;20046;-78
2022/09/16 08:19:56;;;;;;;9.85;2.67;;;;;;;14.96;83.77;100380.03;4998353;28;20515;-77
2022/09/16 08:22:24;;;;;;;8.43;2.85;;;;;;;14.87;83.14;100377.53;4996963;28;20065;-79
2022/09/16 08:24:52;;;;;;;9.60;3.63;;;;;;;14.50;84.32;100377.81;4997323;28;20139;-78
2022/09/16 08:27:19;;;;;;;6.32;2.50;;;;;;;14.77;84.73;100392.84;4995557;28;20050;-77
2022/09/16 08:29:45;;;;;;;5.28;2.50;;;;;;;15.84;82.40;100396.03;4997021;28;20081;-78
2022/09/16 08:32:12;;;;;;;6.40;2.50;;;;;;;16.65;77.97;100396.09;5001273;28;20109;-78
2022/09/16 08:34:39;;;;;;;7.65;2.63;;;;;;;16.85;76.27;100391.66;5003259;28;20137;-79
2022/09/16 08:37:06;;;;;;;6.72;2.72;;;;;;;16.63;74.49;100398.09;5000774;28;20050;-79
2022/09/16 08:39:33;;;;;;;5.53;2.10;;;;;;;15.88;76.67;100393.84;5000437;28;20105;-79
2022/09/16 08:42:36;;;;;;;7.60;2.55;;;;;;;15.77;77.37;100400.47;5001190;28;20516;-79
2022/09/16 08:45:13;;;;;;;7.40;2.53;;;;;;;16.11;77.15;100402.22;4978236;28;20129;-78
2022/09/16 08:47:49;;;;;;;6.22;2.50;;;;;;;16.17;76.98;100404.09;4997043;28;20049;-78
2022/09/16 08:50:19;;;;;;;5.97;2.55;;;;;;;16.58;75.62;100390.78;4998998;28;20110;-77
2022/09/16 08:52:47;;;;;;;7.53;2.38;;;;;;;16.62;74.25;100400.94;4996151;28;20091;-77
2022/09/16 08:55:18;;;;;;;4.85;2.30;;;;;;;16.69;74.13;100393.88;4997751;28;20062;-78
2022/09/16 08:57:53;;;;;;;6.28;3.08;;;;;;;17.34;72.72;100408.94;4996645;28;20047;-78
2022/09/16 09:00:20;;;;;;;7.55;2.78;;;;;;;17.10;73.54;100404.25;4995277;28;20046;-77
2022/09/16 09:02:52;;;;;;;4.82;2.53;;;;;;;16.88;73.70;100401.84;5000888;28;20078;-78
2022/09/16 09:05:25;;;;;;;4.15;2.30;;;;;;;16.35;74.57;100397.44;4995012;28;20061;-78
2022/09/16 09:08:04;;;;;;;4.20;2.05;;;;;;;16.23;75.91;100402.50;4997616;28;20046;-79
2022/09/16 09:10:38;;;;;;;7.13;2.80;;;;;;;16.80;73.56;100407.31;4998813;28;20516;-79
2022/09/16 09:13:28;;;;;;;8.93;3.30;;;;;;;17.29;72.15;100406.09;4999713;28;20181;-79
2022/09/16 09:16:02;;;;;;;8.30;2.88;;;;;;;17.65;70.97;100396.84;4998794;28;20082;-79
2022/09/16 09:18:41;;;;;;;7.55;2.92;;;;;;;17.65;70.59;100404.78;4998833;28;20050;-79
2022/09/16 09:21:21;;;;;;;5.85;2.22;;;;;;;17.03;70.63;100403.44;5001053;28;20054;-79
2022/09/16 09:24:05;;;;;;;7.68;2.80;;;;;;;16.83;71.92;100404.28;5002954;28;20110;-79
2022/09/16 09:26:41;;;;;;;4.97;2.63;;;;;;;16.74;72.90;100394.09;5005873;28;20114;-79
2022/09/16 09:29:29;;;;;;;6.47;3.05;;;;;;;16.26;72.83;100402.91;5005333;28;20082;-79
2022/09/16 09:32:06;;;;;;;4.38;2.58;;;;;;;16.42;72.36;100399.09;4999893;28;20058;-79
2022/09/16 09:34:45;;;;;;;6.32;2.70;;;;;;;16.35;73.40;100400.09;4999397;28;20129;-79
2022/09/16 09:37:30;;;;;;;6.10;3.10;;;;;;;16.33;73.83;100399.47;4998859;28;20138;-80
2022/09/16 09:40:07;;;;;;;3.90;1.80;;;;;;;15.80;76.12;100399.28;4997568;28;20415;-80
2022/09/16 09:42:37;;;;;;;6.90;2.03;;;;;;;15.70;76.81;100404.91;4998925;28;20096;-80
2022/09/16 09:45:19;;;;;;;4.70;1.92;;;;;;;15.62;77.88;100405.06;4999357;28;20134;-78
2022/09/16 09:47:51;;;;;;;2.33;1.48;;;;;;;15.53;77.91;100399.09;4998689;28;20116;-80
2022/09/16 09:50:21;;;;;;;8.55;2.35;;;;;;;15.79;77.41;100401.09;4998467;28;20133;-78
2022/09/16 09:52:57;;;;;;;7.25;2.33;;;;;;;16.27;75.99;100401.91;4998970;28;20093;-80
2022/09/16 09:55:27;;;;;;;3.47;2.00;;;;;;;16.36;73.93;100404.34;4998574;28;20097;-79
2022/09/16 09:58:05;;;;;;;5.60;2.75;;;;;;;16.26;74.05;100394.97;4998666;28;20137;-79
2022/09/16 10:00:33;;;;;;;2.92;1.70;;;;;;;16.47;73.11;100401.16;4998057;28;20057;-79
2022/09/16 10:03:06;;;;;;;6.60;2.20;;;;;;;16.44;73.56;100386.50;4999243;28;20111;-79
2022/09/16 10:05:34;;;;;;;6.03;2.22;;;;;;;16.45;72.03;100392.59;4997390;28;20050;-80
2022/09/16 10:08:08;;;;;;;5.97;2.85;;;;;;;16.69;71.57;100384.13;4998421;28;20113;-79
2022/09/16 10:10:40;;;;;;;3.92;2.00;;;;;;;16.90;71.78;100381.31;4997954;28;20125;-80
2022/09/16 10:13:08;;;;;;;5.80;1.95;;;;;;;16.99;70.61;100387.22;4998005;28;20078;-80
2022/09/16 10:15:37;;;;;;;4.30;1.98;;;;;;;17.13;70.13;100385.34;4997752;28;20113;-80
2022/09/16 10:18:11;;;;;;;3.60;1.63;;;;;;;17.63;70.75;100383.84;4998310;28;20060;-80
2022/09/16 10:20:41;;;;;;;6.43;2.35;;;;;;;17.65;69.90;100383.63;4999015;28;20096;-79
2022/09/16 10:23:11;;;;;;;5.95;1.83;;;;;;;17.53;69.69;100368.38;4999038;28;20053;-79
2022/09/16 10:25:38;;;;;;;6.18;1.80;;;;;;;17.44;68.13;100377.59;4997982;28;20133;-79
2022/09/16 10:28:17;;;;;;;3.22;1.58;;;;;;;17.38;68.90;100377.59;4997359;28;20081;-79
2022/09/16 10:30:48;;;;;;;7.25;2.30;;;;;;;17.24;69.44;100387.38;4998931;28;20054;-80
2022/09/16 10:33:22;;;;;;;6.03;2.35;;;;;;;17.23;69.90;100375.19;4998407;28;20046;-79
2022/09/16 10:35:55;;;;;;;4.70;1.60;;;;;;;17.30;70.62;100370.69;4999837;28;20079;-81
2022/09/16 10:38:26;;;;;;;7.40;2.08;;;;;;;17.44;69.43;100366.19;4997984;28;20062;-79
2022/09/16 10:40:53;;;;;;;5.95;1.85;;;;;;;17.31;67.20;100382.09;4999375;28;20402;-80
2022/09/16 10:43:22;;;;;;;5.32;1.95;;;;;;;16.70;67.53;100369.91;4999214;28;20129;-78
2022/09/16 10:45:52;;;;;;;4.35;1.63;;;;;;;16.37;68.63;100366.38;4998338;28;20050;-78
2022/09/16 10:48:21;;;;;;;4.75;1.88;;;;;;;16.27;69.48;100364.94;4997873;28;20146;-80
2022/09/16 10:50:56;;;;;;;6.50;2.05;;;;;;;16.21;70.29;100370.19;4999334;28;20114;-79
2022/09/16 10:53:29;;;;;;;7.05;2.13;;;;;;;16.14;70.87;100369.34;4998141;28;20081;-80
2022/09/16 10:55:57;;;;;;;6.07;2.13;;;;;;;15.97;72.72;100374.19;4998541;28;20321;-80
2022/09/16 10:58:24;;;;;;;2.85;1.83;;;;;;;15.53;72.93;100378.00;4996469;28;20053;-78
2022/09/16 11:01:06;;;;;;;2.97;2.20;;;;;;;15.49;75.30;100362.78;4997234;28;20133;-79
2022/09/16 11:04:02;;;;;;;5.15;3.00;;;;;;;15.47;76.76;100368.25;4998004;28;20057;-80
2022/09/16 11:06:43;;;;;;;6.38;2.50;;;;;;;15.89;76.04;100350.59;4997533;28;20141;-79
2022/09/16 11:09:18;;;;;;;5.05;1.83;;;;;;;16.10;71.89;100355.72;4993636;28;20134;-78
2022/09/16 11:12:01;;;;;;;3.10;1.58;;;;;;;15.86;71.37;100357.09;4994450;28;20465;-78
2022/09/16 11:14:39;;;;;;;3.63;1.63;;;;;;;15.86;71.93;100358.91;4995039;28;20077;-79
2022/09/16 11:17:20;;;;;;;7.28;1.98;;;;;;;15.83;72.31;100354.84;4995864;28;20101;-78
2022/09/16 11:20:01;;;;;;;4.55;1.67;;;;;;;16.04;71.80;100350.47;4995523;28;20054;-80
2022/09/16 11:22:35;;;;;;;7.18;1.73;;;;;;;16.41;70.99;100346.47;4999259;28;20059;-78
2022/09/16 11:25:30;;;;;;;4.30;1.83;;;;;;;16.76;69.43;100345.31;5006606;28;20080;-80
2022/09/16 11:28:17;;;;;;;7.95;1.90;;;;;;;17.06;68.93;100334.31;5000407;28;20109;-79
2022/09/16 11:30:52;;;;;;;8.30;2.20;;;;;;;17.06;69.36;100342.25;5001338;28;20050;-79
2022/09/16 11:33:29;;;;;;;4.95;1.77;;;;;;;17.25;68.99;100347.50;5016209;28;20105;-78
2022/09/16 11:36:16;;;;;;;11.35;3.03;;;;;;;16.90;67.49;100346.94;4948660;28;20052;-78
2022/09/16 11:38:56;;;;;;;3.22;1.98;;;;;;;16.56;65.51;100342.63;4794715;29;20083;-79
2022/09/16 11:46:36;;;;;;;5.78;2.35;;;;;;;16.85;67.44;100352.03;5165040;27;20202;-77
2022/09/16 11:49:19;;;;;;;4.50;1.90;;;;;;;17.30;67.45;100365.41;5065523;28;1251758;-79
2022/09/16 11:51:59;;;;;;;4.68;2.22;;;;;;;17.25;67.14;100368.66;5093004;28;20079;-79
2022/09/16 11:54:41;;;;;;;4.00;1.80;;;;;;;16.98;67.78;100369.72;5096839;28;20076;-79
2022/09/16 11:57:12;;;;;;;4.60;1.67;;;;;;;16.84;69.50;100368.91;5091376;28;20049;-77
2022/09/16 11:59:46;;;;;;;3.55;1.63;;;;;;;16.72;69.30;100365.22;5091522;28;20139;-77
2022/09/16 12:02:21;;;;;;;4.43;2.00;;;;;;;16.81;69.76;100356.09;5092358;28;20056;-78
2022/09/16 12:04:56;;;;;;;7.78;3.10;;;;;;;17.05;68.76;100356.47;5095397;28;20103;-77
2022/09/16 12:07:27;;;;;;;10.38;2.10;;;;;;;17.56;68.30;100365.34;5092946;28;20550;-77
2022/09/16 12:09:58;;;;;;;6.32;2.53;;;;;;;17.85;67.54;100366.69;5091758;28;20052;-77
2022/09/16 12:12:32;;;;;;;5.93;2.25;;;;;;;17.87;68.28;100401.72;5092765;28;20534;-77
2022/09/16 12:15:02;;;;;;;6.53;1.88;;;;;;;16.30;70.28;100418.34;5091908;28;20117;-77
2022/09/16 12:17:33;;;;;;;6.13;1.50;;;;;;;15.42;74.90;100420.72;5093819;28;20215;-77
2022/09/16 12:20:07;;;;;;;2.67;1.10;;;;;;;14.28;82.30;100414.59;5091902;28;20471;-77
2022/09/16 12:22:39;;;;;;;11.57;2.00;;;;;;;13.61;88.93;100420.03;5093415;28;20048;-78
2022/09/16 12:25:12;;;;;;;7.10;1.80;;;;;;;12.96;92.98;100431.09;5093809;28;20052;-78
2022/09/16 12:27:46;;;;;;;5.72;1.98;;;;;;;12.89;96.05;100448.56;5097048;28;20072;-79
2022/09/16 12:30:17;;;;;;;6.82;2.03;;;;;;;12.81;97.17;100439.91;5096333;28;20113;-78
2022/09/16 12:32:54;;;;;;;1.55;1.10;;;;;;;12.84;97.28;100444.81;5098862;28;20098;-79
2022/09/16 12:35:26;;;;;;;4.97;1.90;;;;;;;12.60;97.20;100427.44;5098692;28;20083;-79
2022/09/16 12:37:54;;;;;;;4.72;2.35;;;;;;;12.91;97.83;100440.50;5098533;28;20566;-78
2022/09/16 12:40:24;;;;;;;4.82;1.67;;;;;;;13.01;98.53;100435.03;5101213;28;20073;-79